sensor_id;sensor_type;location;lat;lon;timestamp;pressure;altitude;pressure_sealevel;temperature;humidity
27429;BME280;14881;48.092;11.574;2023-02-10T00:01:02;97084.13;;;-3.49;100.00
27429;BME280;14881;48.092;11.574;2023-02-10T00:03:30;97095.56;;;-3.49;100.00
27429;BME280;14881;48.092;11.574;2023-02-10T00:05:59;97094.06;;;-3.52;100.00
27429;BME280;14881;48.092;11.574;2023-02-10T00:08:28;97098.50;;;-3.60;100.00
27429;BME280;14881;48.092;11.574;2023-02-10T00:10:57;97095.53;;;-3.65;100.00
27429;BME280;14881;48.092;11.574;2023-02-10T00:13:26;97099.97;;;-3.74;100.00
27429;BME280;14881;48.092;11.574;2023-02-10T00:15:54;97105.47;;;-3.67;100.00
27429;BME280;14881;48.092;11.574;2023-02-10T00:18:24;97118.25;;;-3.63;100.00
27429;BME280;14881;48.092;11.574;2023-02-10T00:20:52;97117.41;;;-3.63;100.00
27429;BME280;14881;48.092;11.574;2023-02-10T00:23:20;97113.28;;;-3.66;100.00
27429;BME280;14881;48.092;11.574;2023-02-10T00:25:49;97118.91;;;-3.69;100.00
27429;BME280;14881;48.092;11.574;2023-02-10T00:28:20;97117.19;;;-3.78;100.00
27429;BME280;14881;48.092;11.574;2023-02-10T00:30:50;97124.31;;;-3.87;100.00
27429;BME280;14881;48.092;11.574;2023-02-10T00:33:18;97121.50;;;-3.85;100.00
27429;BME280;14881;48.092;11.574;2023-02-10T00:35:45;97120.00;;;-3.88;100.00
27429;BME280;14881;48.092;11.574;2023-02-10T00:38:13;97132.44;;;-3.88;100.00
27429;BME280;14881;48.092;11.574;2023-02-10T00:40:41;97136.78;;;-3.79;100.00
27429;BME280;14881;48.092;11.574;2023-02-10T00:43:10;97136.78;;;-3.79;100.00
27429;BME280;14881;48.092;11.574;2023-02-10T00:45:38;97139.94;;;-3.75;100.00
27429;BME280;14881;48.092;11.574;2023-02-10T00:48:06;97147.09;;;-3.76;100.00
27429;BME280;14881;48.092;11.574;2023-02-10T00:50:33;97150.88;;;-3.78;100.00
27429;BME280;14881;48.092;11.574;2023-02-10T00:53:01;97143.41;;;-3.83;100.00
27429;BME280;14881;48.092;11.574;2023-02-10T00:55:29;97151.47;;;-3.93;100.00
27429;BME280;14881;48.092;11.574;2023-02-10T00:57:57;97148.13;;;-4.03;100.00
27429;BME280;14881;48.092;11.574;2023-02-10T01:00:26;97146.72;;;-4.15;100.00
27429;BME280;14881;48.092;11.574;2023-02-10T01:02:53;97150.47;;;-4.26;100.00
27429;BME280;14881;48.092;11.574;2023-02-10T01:05:23;97155.78;;;-4.26;100.00
27429;BME280;14881;48.092;11.574;2023-02-10T01:07:51;97152.81;;;-4.23;100.00
27429;BME280;14881;48.092;11.574;2023-02-10T01:10:19;97154.50;;;-4.22;100.00
27429;BME280;14881;48.092;11.574;2023-02-10T01:12:47;97153.84;;;-4.15;100.00
27429;BME280;14881;48.092;11.574;2023-02-10T01:15:15;97153.38;;;-4.11;100.00
27429;BME280;14881;48.092;11.574;2023-02-10T01:17:44;97148.97;;;-4.02;100.00
27429;BME280;14881;48.092;11.574;2023-02-10T01:20:12;97169.06;;;-4.00;100.00
27429;BME280;14881;48.092;11.574;2023-02-10T01:22:40;97173.00;;;-4.04;100.00
27429;BME280;14881;48.092;11.574;2023-02-10T01:25:08;97159.22;;;-4.07;100.00
27429;BME280;14881;48.092;11.574;2023-02-10T01:27:38;97158.84;;;-4.12;100.00
27429;BME280;14881;48.092;11.574;2023-02-10T01:30:07;97163.28;;;-4.21;100.00
27429;BME280;14881;48.092;11.574;2023-02-10T01:32:35;97162.53;;;-4.31;100.00
27429;BME280;14881;48.092;11.574;2023-02-10T01:35:05;97159.47;;;-4.44;100.00
27429;BME280;14881;48.092;11.574;2023-02-10T01:37:33;97170.50;;;-4.57;100.00
27429;BME280;14881;48.092;11.574;2023-02-10T01:40:03;97164.44;;;-4.67;100.00
27429;BME280;14881;48.092;11.574;2023-02-10T01:42:31;97170.22;;;-4.72;100.00
27429;BME280;14881;48.092;11.574;2023-02-10T01:45:20;97165.06;;;-4.73;100.00
27429;BME280;14881;48.092;11.574;2023-02-10T01:47:51;97169.09;;;-4.87;100.00
27429;BME280;14881;48.092;11.574;2023-02-10T01:50:23;97177.25;;;-4.98;100.00
27429;BME280;14881;48.092;11.574;2023-02-10T01:52:52;97177.03;;;-5.05;100.00
27429;BME280;14881;48.092;11.574;2023-02-10T01:55:23;97179.59;;;-5.13;100.00
27429;BME280;14881;48.092;11.574;2023-02-10T01:57:52;97184.28;;;-5.24;100.00
27429;BME280;14881;48.092;11.574;2023-02-10T02:00:21;97187.53;;;-5.31;100.00
27429;BME280;14881;48.092;11.574;2023-02-10T02:02:50;97194.72;;;-5.41;100.00
27429;BME280;14881;48.092;11.574;2023-02-10T02:05:23;97194.16;;;-5.44;100.00
27429;BME280;14881;48.092;11.574;2023-02-10T02:07:57;97190.13;;;-5.48;100.00
27429;BME280;14881;48.092;11.574;2023-02-10T02:10:38;97195.22;;;-5.55;100.00
27429;BME280;14881;48.092;11.574;2023-02-10T02:13:12;97187.16;;;-5.63;100.00
27429;BME280;14881;48.092;11.574;2023-02-10T02:15:47;97191.75;;;-5.65;100.00
27429;BME280;14881;48.092;11.574;2023-02-10T02:18:26;97200.97;;;-5.69;100.00
27429;BME280;14881;48.092;11.574;2023-02-10T02:21:15;97198.63;;;-5.72;100.00
27429;BME280;14881;48.092;11.574;2023-02-10T02:26:53;97198.09;;;-5.76;100.00
27429;BME280;14881;48.092;11.574;2023-02-10T02:29:49;97202.84;;;-5.79;100.00
27429;BME280;14881;48.092;11.574;2023-02-10T02:32:25;97207.44;;;-5.81;100.00
27429;BME280;14881;48.092;11.574;2023-02-10T02:35:00;97216.16;;;-5.89;100.00
27429;BME280;14881;48.092;11.574;2023-02-10T02:37:30;97206.53;;;-5.90;100.00
27429;BME280;14881;48.092;11.574;2023-02-10T02:39:59;97215.47;;;-5.91;100.00
27429;BME280;14881;48.092;11.574;2023-02-10T02:42:29;97217.72;;;-6.06;100.00
27429;BME280;14881;48.092;11.574;2023-02-10T02:45:00;97217.72;;;-6.06;100.00
27429;BME280;14881;48.092;11.574;2023-02-10T02:47:40;97217.19;;;-6.09;100.00
27429;BME280;14881;48.092;11.574;2023-02-10T02:50:20;97217.34;;;-6.11;100.00
27429;BME280;14881;48.092;11.574;2023-02-10T02:53:05;97221.78;;;-6.11;100.00
27429;BME280;14881;48.092;11.574;2023-02-10T02:55:48;97216.63;;;-6.13;100.00
27429;BME280;14881;48.092;11.574;2023-02-10T02:58:21;97219.69;;;-6.17;100.00
27429;BME280;14881;48.092;11.574;2023-02-10T03:00:55;97224.44;;;-6.21;100.00
27429;BME280;14881;48.092;11.574;2023-02-10T03:03:30;97228.28;;;-6.06;100.00
27429;BME280;14881;48.092;11.574;2023-02-10T03:06:03;97217.84;;;-5.98;100.00
27429;BME280;14881;48.092;11.574;2023-02-10T03:08:33;97213.53;;;-5.99;100.00
27429;BME280;14881;48.092;11.574;2023-02-10T03:11:04;97211.84;;;-6.00;100.00
27429;BME280;14881;48.092;11.574;2023-02-10T03:13:32;97215.91;;;-6.05;100.00
27429;BME280;14881;48.092;11.574;2023-02-10T03:16:00;97219.28;;;-6.13;100.00
27429;BME280;14881;48.092;11.574;2023-02-10T03:18:27;97216.13;;;-6.26;100.00
27429;BME280;14881;48.092;11.574;2023-02-10T03:20:56;97217.78;;;-6.35;100.00
27429;BME280;14881;48.092;11.574;2023-02-10T03:23:24;97214.91;;;-6.41;100.00
27429;BME280;14881;48.092;11.574;2023-02-10T03:25:52;97216.72;;;-6.42;100.00
27429;BME280;14881;48.092;11.574;2023-02-10T03:28:20;97223.81;;;-6.42;100.00
27429;BME280;14881;48.092;11.574;2023-02-10T03:30:47;97212.94;;;-6.39;100.00
27429;BME280;14881;48.092;11.574;2023-02-10T03:33:16;97217.66;;;-6.33;100.00
27429;BME280;14881;48.092;11.574;2023-02-10T03:35:45;97218.72;;;-6.16;100.00
27429;BME280;14881;48.092;11.574;2023-02-10T03:38:18;97216.63;;;-6.13;100.00
27429;BME280;14881;48.092;11.574;2023-02-10T03:40:49;97209.69;;;-6.14;100.00
27429;BME280;14881;48.092;11.574;2023-02-10T03:43:17;97213.16;;;-6.13;100.00
27429;BME280;14881;48.092;11.574;2023-02-10T03:45:45;97226.38;;;-6.13;100.00
27429;BME280;14881;48.092;11.574;2023-02-10T03:48:13;97225.81;;;-6.17;100.00
27429;BME280;14881;48.092;11.574;2023-02-10T03:50:42;97234.31;;;-6.23;100.00
27429;BME280;14881;48.092;11.574;2023-02-10T03:53:11;97236.16;;;-6.23;100.00
27429;BME280;14881;48.092;11.574;2023-02-10T03:55:40;97236.72;;;-6.29;100.00
27429;BME280;14881;48.092;11.574;2023-02-10T03:58:07;97235.31;;;-6.34;100.00
27429;BME280;14881;48.092;11.574;2023-02-10T04:00:35;97241.88;;;-6.38;100.00
27429;BME280;14881;48.092;11.574;2023-02-10T04:03:03;97245.34;;;-6.37;100.00
27429;BME280;14881;48.092;11.574;2023-02-10T04:05:31;97238.38;;;-6.38;100.00
27429;BME280;14881;48.092;11.574;2023-02-10T04:07:59;97241.41;;;-6.14;100.00
27429;BME280;14881;48.092;11.574;2023-02-10T04:10:26;97233.00;;;-5.90;100.00
27429;BME280;14881;48.092;11.574;2023-02-10T04:12:56;97234.16;;;-5.75;100.00
27429;BME280;14881;48.092;11.574;2023-02-10T04:15:24;97237.84;;;-5.58;100.00
27429;BME280;14881;48.092;11.574;2023-02-10T04:17:52;97236.09;;;-5.40;100.00
27429;BME280;14881;48.092;11.574;2023-02-10T04:20:19;97234.59;;;-5.24;100.00
27429;BME280;14881;48.092;11.574;2023-02-10T04:22:47;97233.16;;;-5.19;100.00
27429;BME280;14881;48.092;11.574;2023-02-10T04:25:16;97233.94;;;-5.09;100.00
27429;BME280;14881;48.092;11.574;2023-02-10T04:27:44;97228.22;;;-5.04;100.00
27429;BME280;14881;48.092;11.574;2023-02-10T04:30:16;97232.06;;;-4.99;100.00
27429;BME280;14881;48.092;11.574;2023-02-10T04:32:44;97235.84;;;-5.01;100.00
27429;BME280;14881;48.092;11.574;2023-02-10T04:35:12;97231.38;;;-5.01;100.00
27429;BME280;14881;48.092;11.574;2023-02-10T04:37:39;97230.25;;;-4.98;100.00
27429;BME280;14881;48.092;11.574;2023-02-10T04:40:08;97233.13;;;-4.92;100.00
27429;BME280;14881;48.092;11.574;2023-02-10T04:42:36;97231.84;;;-4.87;100.00
27429;BME280;14881;48.092;11.574;2023-02-10T04:45:05;97241.31;;;-4.85;100.00
27429;BME280;14881;48.092;11.574;2023-02-10T04:47:34;97240.50;;;-4.85;100.00
27429;BME280;14881;48.092;11.574;2023-02-10T04:50:02;97238.34;;;-4.82;100.00
27429;BME280;14881;48.092;11.574;2023-02-10T04:52:30;97236.03;;;-4.85;100.00
27429;BME280;14881;48.092;11.574;2023-02-10T04:55:01;97234.38;;;-4.86;100.00
27429;BME280;14881;48.092;11.574;2023-02-10T04:57:32;97241.09;;;-4.92;100.00
27429;BME280;14881;48.092;11.574;2023-02-10T05:00:00;97231.03;;;-4.88;100.00
27429;BME280;14881;48.092;11.574;2023-02-10T05:02:28;97237.59;;;-4.92;100.00
27429;BME280;14881;48.092;11.574;2023-02-10T05:04:57;97237.22;;;-4.97;100.00
27429;BME280;14881;48.092;11.574;2023-02-10T05:07:26;97237.00;;;-5.04;100.00
27429;BME280;14881;48.092;11.574;2023-02-10T05:09:53;97229.50;;;-5.08;100.00
27429;BME280;14881;48.092;11.574;2023-02-10T05:12:24;97244.44;;;-5.17;100.00
27429;BME280;14881;48.092;11.574;2023-02-10T05:14:52;97240.13;;;-5.18;100.00
27429;BME280;14881;48.092;11.574;2023-02-10T05:17:19;97242.56;;;-5.24;100.00
27429;BME280;14881;48.092;11.574;2023-02-10T05:19:47;97248.78;;;-5.43;100.00
27429;BME280;14881;48.092;11.574;2023-02-10T05:22:16;97256.53;;;-5.69;100.00
27429;BME280;14881;48.092;11.574;2023-02-10T05:24:44;97258.13;;;-5.86;100.00
27429;BME280;14881;48.092;11.574;2023-02-10T05:27:12;97261.13;;;-5.89;100.00
27429;BME280;14881;48.092;11.574;2023-02-10T05:29:40;97263.38;;;-6.04;100.00
27429;BME280;14881;48.092;11.574;2023-02-10T05:32:07;97277.47;;;-6.13;100.00
27429;BME280;14881;48.092;11.574;2023-02-10T05:34:35;97280.41;;;-6.25;100.00
27429;BME280;14881;48.092;11.574;2023-02-10T05:37:03;97287.50;;;-6.36;100.00
27429;BME280;14881;48.092;11.574;2023-02-10T05:39:34;97296.69;;;-6.49;100.00
27429;BME280;14881;48.092;11.574;2023-02-10T05:42:02;97305.75;;;-6.61;100.00
27429;BME280;14881;48.092;11.574;2023-02-10T05:44:31;97303.22;;;-6.73;100.00
27429;BME280;14881;48.092;11.574;2023-02-10T05:47:02;97297.94;;;-6.82;100.00
27429;BME280;14881;48.092;11.574;2023-02-10T05:49:30;97298.75;;;-6.91;100.00
27429;BME280;14881;48.092;11.574;2023-02-10T05:51:58;97301.81;;;-6.96;100.00
27429;BME280;14881;48.092;11.574;2023-02-10T05:54:26;97301.63;;;-7.04;100.00
27429;BME280;14881;48.092;11.574;2023-02-10T05:56:55;97304.84;;;-7.10;100.00
27429;BME280;14881;48.092;11.574;2023-02-10T05:59:23;97313.16;;;-7.15;100.00
27429;BME280;14881;48.092;11.574;2023-02-10T06:01:50;97322.00;;;-7.25;100.00
27429;BME280;14881;48.092;11.574;2023-02-10T06:04:22;97327.41;;;-7.27;100.00
27429;BME280;14881;48.092;11.574;2023-02-10T06:06:50;97315.88;;;-7.26;100.00
27429;BME280;14881;48.092;11.574;2023-02-10T06:09:18;97323.13;;;-7.28;100.00
27429;BME280;14881;48.092;11.574;2023-02-10T06:11:49;97322.00;;;-7.35;100.00
27429;BME280;14881;48.092;11.574;2023-02-10T06:14:18;97327.53;;;-7.38;100.00
27429;BME280;14881;48.092;11.574;2023-02-10T06:16:46;97326.13;;;-7.42;100.00
27429;BME280;14881;48.092;11.574;2023-02-10T06:19:14;97327.66;;;-7.40;100.00
27429;BME280;14881;48.092;11.574;2023-02-10T06:21:45;97334.72;;;-7.40;100.00
27429;BME280;14881;48.092;11.574;2023-02-10T06:24:13;97341.31;;;-7.34;100.00
27429;BME280;14881;48.092;11.574;2023-02-10T06:26:41;97332.31;;;-7.22;100.00
27429;BME280;14881;48.092;11.574;2023-02-10T06:29:09;97338.34;;;-7.11;100.00
27429;BME280;14881;48.092;11.574;2023-02-10T06:31:38;97340.28;;;-7.13;100.00
27429;BME280;14881;48.092;11.574;2023-02-10T06:34:05;97343.19;;;-7.06;100.00
27429;BME280;14881;48.092;11.574;2023-02-10T06:36:34;97342.81;;;-6.92;100.00
27429;BME280;14881;48.092;11.574;2023-02-10T06:39:02;97344.25;;;-6.69;100.00
27429;BME280;14881;48.092;11.574;2023-02-10T06:41:30;97344.56;;;-6.43;100.00
27429;BME280;14881;48.092;11.574;2023-02-10T06:43:58;97346.50;;;-6.16;100.00
27429;BME280;14881;48.092;11.574;2023-02-10T06:46:25;97344.13;;;-6.00;100.00
27429;BME280;14881;48.092;11.574;2023-02-10T06:48:55;97346.91;;;-5.91;100.00
27429;BME280;14881;48.092;11.574;2023-02-10T06:51:22;97353.25;;;-5.84;100.00
27429;BME280;14881;48.092;11.574;2023-02-10T06:53:50;97356.16;;;-5.78;100.00
27429;BME280;14881;48.092;11.574;2023-02-10T06:56:18;97358.78;;;-5.68;100.00
27429;BME280;14881;48.092;11.574;2023-02-10T06:58:46;97364.75;;;-5.56;100.00
27429;BME280;14881;48.092;11.574;2023-02-10T07:01:16;97368.63;;;-5.51;100.00
27429;BME280;14881;48.092;11.574;2023-02-10T07:03:44;97369.75;;;-5.44;100.00
27429;BME280;14881;48.092;11.574;2023-02-10T07:06:14;97362.88;;;-5.37;100.00
27429;BME280;14881;48.092;11.574;2023-02-10T07:08:45;97360.63;;;-5.32;100.00
27429;BME280;14881;48.092;11.574;2023-02-10T07:11:13;97358.97;;;-5.33;100.00
27429;BME280;14881;48.092;11.574;2023-02-10T07:13:41;97364.09;;;-5.21;100.00
27429;BME280;14881;48.092;11.574;2023-02-10T07:16:09;97368.38;;;-5.11;100.00
27429;BME280;14881;48.092;11.574;2023-02-10T07:18:40;97362.63;;;-5.06;100.00
27429;BME280;14881;48.092;11.574;2023-02-10T07:21:08;97370.09;;;-4.92;100.00
27429;BME280;14881;48.092;11.574;2023-02-10T07:23:37;97374.63;;;-4.84;100.00
27429;BME280;14881;48.092;11.574;2023-02-10T07:26:06;97370.28;;;-4.76;100.00
27429;BME280;14881;48.092;11.574;2023-02-10T07:28:34;97380.53;;;-4.63;100.00
27429;BME280;14881;48.092;11.574;2023-02-10T07:31:02;97378.19;;;-4.48;100.00
27429;BME280;14881;48.092;11.574;2023-02-10T07:33:30;97374.53;;;-4.38;100.00
27429;BME280;14881;48.092;11.574;2023-02-10T07:35:59;97376.09;;;-4.27;100.00
27429;BME280;14881;48.092;11.574;2023-02-10T07:38:29;97380.19;;;-4.15;100.00
27429;BME280;14881;48.092;11.574;2023-02-10T07:40:58;97373.84;;;-4.04;100.00
27429;BME280;14881;48.092;11.574;2023-02-10T07:43:26;97372.47;;;-3.91;100.00
27429;BME280;14881;48.092;11.574;2023-02-10T07:45:54;97375.84;;;-3.80;100.00
27429;BME280;14881;48.092;11.574;2023-02-10T07:48:22;97382.09;;;-3.72;100.00
27429;BME280;14881;48.092;11.574;2023-02-10T07:50:50;97383.16;;;-3.65;100.00
27429;BME280;14881;48.092;11.574;2023-02-10T07:53:20;97390.03;;;-3.54;100.00
27429;BME280;14881;48.092;11.574;2023-02-10T07:55:48;97380.94;;;-3.43;100.00
27429;BME280;14881;48.092;11.574;2023-02-10T07:58:18;97393.00;;;-3.31;100.00
27429;BME280;14881;48.092;11.574;2023-02-10T08:00:46;97384.75;;;-3.20;100.00
27429;BME280;14881;48.092;11.574;2023-02-10T08:03:14;97382.81;;;-3.10;100.00
27429;BME280;14881;48.092;11.574;2023-02-10T08:05:42;97388.88;;;-3.00;100.00
27429;BME280;14881;48.092;11.574;2023-02-10T08:08:10;97388.91;;;-2.92;100.00
27429;BME280;14881;48.092;11.574;2023-02-10T08:10:40;97393.94;;;-2.81;100.00
27429;BME280;14881;48.092;11.574;2023-02-10T08:13:08;97396.31;;;-2.69;100.00
27429;BME280;14881;48.092;11.574;2023-02-10T08:15:37;97395.88;;;-2.57;100.00
27429;BME280;14881;48.092;11.574;2023-02-10T08:18:05;97387.28;;;-2.42;100.00
27429;BME280;14881;48.092;11.574;2023-02-10T08:20:33;97394.81;;;-2.30;100.00
27429;BME280;14881;48.092;11.574;2023-02-10T08:23:01;97389.69;;;-2.15;100.00
27429;BME280;14881;48.092;11.574;2023-02-10T08:25:29;97394.84;;;-2.05;100.00
27429;BME280;14881;48.092;11.574;2023-02-10T08:27:57;97395.84;;;-1.90;100.00
27429;BME280;14881;48.092;11.574;2023-02-10T08:30:25;97393.56;;;-1.77;100.00
27429;BME280;14881;48.092;11.574;2023-02-10T08:32:54;97396.03;;;-1.67;100.00
27429;BME280;14881;48.092;11.574;2023-02-10T08:35:22;97382.41;;;-1.56;100.00
27429;BME280;14881;48.092;11.574;2023-02-10T08:37:50;97392.56;;;-1.44;100.00
27429;BME280;14881;48.092;11.574;2023-02-10T08:40:18;97388.88;;;-1.34;100.00
27429;BME280;14881;48.092;11.574;2023-02-10T08:42:46;97389.22;;;-1.21;100.00
27429;BME280;14881;48.092;11.574;2023-02-10T08:45:14;97377.84;;;-1.07;100.00
27429;BME280;14881;48.092;11.574;2023-02-10T08:47:42;97379.47;;;-0.98;100.00
27429;BME280;14881;48.092;11.574;2023-02-10T08:50:11;97373.41;;;-0.84;100.00
27429;BME280;14881;48.092;11.574;2023-02-10T08:52:39;97374.19;;;-0.59;100.00
27429;BME280;14881;48.092;11.574;2023-02-10T08:55:07;97372.09;;;-0.41;100.00
27429;BME280;14881;48.092;11.574;2023-02-10T08:57:34;97382.03;;;-0.26;100.00
27429;BME280;14881;48.092;11.574;2023-02-10T09:00:04;97385.75;;;-0.05;100.00
27429;BME280;14881;48.092;11.574;2023-02-10T09:02:32;97382.31;;;0.10;100.00
27429;BME280;14881;48.092;11.574;2023-02-10T09:05:00;97380.84;;;0.30;100.00
27429;BME280;14881;48.092;11.574;2023-02-10T09:07:37;97387.28;;;0.35;100.00
27429;BME280;14881;48.092;11.574;2023-02-10T09:10:05;97387.06;;;0.45;100.00
27429;BME280;14881;48.092;11.574;2023-02-10T09:12:36;97385.25;;;0.60;100.00
27429;BME280;14881;48.092;11.574;2023-02-10T09:15:05;97383.91;;;0.64;100.00
27429;BME280;14881;48.092;11.574;2023-02-10T09:17:32;97390.34;;;0.70;100.00
27429;BME280;14881;48.092;11.574;2023-02-10T09:20:00;97385.75;;;0.79;100.00
27429;BME280;14881;48.092;11.574;2023-02-10T09:22:28;97381.81;;;1.04;100.00
27429;BME280;14881;48.092;11.574;2023-02-10T09:24:57;97398.66;;;1.27;100.00
27429;BME280;14881;48.092;11.574;2023-02-10T09:27:26;97386.38;;;1.48;100.00
27429;BME280;14881;48.092;11.574;2023-02-10T09:29:53;97386.72;;;1.45;100.00
27429;BME280;14881;48.092;11.574;2023-02-10T09:32:21;97385.91;;;1.44;100.00
27429;BME280;14881;48.092;11.574;2023-02-10T09:34:49;97386.47;;;1.54;100.00
27429;BME280;14881;48.092;11.574;2023-02-10T09:37:17;97389.66;;;1.64;100.00
27429;BME280;14881;48.092;11.574;2023-02-10T09:39:45;97394.28;;;1.70;100.00
27429;BME280;14881;48.092;11.574;2023-02-10T09:42:21;97403.19;;;1.92;100.00
27429;BME280;14881;48.092;11.574;2023-02-10T09:44:56;97403.97;;;2.22;100.00
27429;BME280;14881;48.092;11.574;2023-02-10T09:47:43;97414.50;;;2.45;100.00
27429;BME280;14881;48.092;11.574;2023-02-10T09:50:43;97405.44;;;2.67;100.00
27429;BME280;14881;48.092;11.574;2023-02-10T09:53:17;97404.09;;;3.06;100.00
27429;BME280;14881;48.092;11.574;2023-02-10T09:55:48;97395.25;;;3.12;100.00
27429;BME280;14881;48.092;11.574;2023-02-10T09:58:26;97395.19;;;3.27;100.00
27429;BME280;14881;48.092;11.574;2023-02-10T10:01:01;97393.19;;;3.42;100.00
27429;BME280;14881;48.092;11.574;2023-02-10T10:03:37;97390.25;;;3.71;100.00
27429;BME280;14881;48.092;11.574;2023-02-10T10:06:12;97389.63;;;4.24;100.00
27429;BME280;14881;48.092;11.574;2023-02-10T10:08:47;97391.28;;;4.25;100.00
27429;BME280;14881;48.092;11.574;2023-02-10T10:11:24;97387.09;;;4.09;100.00
27429;BME280;14881;48.092;11.574;2023-02-10T10:13:55;97382.88;;;4.67;100.00
27429;BME280;14881;48.092;11.574;2023-02-10T10:16:39;97382.84;;;5.20;100.00
27429;BME280;14881;48.092;11.574;2023-02-10T10:19:17;97384.47;;;5.47;100.00
27429;BME280;14881;48.092;11.574;2023-02-10T10:21:58;97376.34;;;5.67;96.12
27429;BME280;14881;48.092;11.574;2023-02-10T10:24:40;97373.91;;;6.17;95.71
27429;BME280;14881;48.092;11.574;2023-02-10T10:27:19;97377.69;;;6.41;91.50
27429;BME280;14881;48.092;11.574;2023-02-10T10:29:52;97371.25;;;6.42;87.11
27429;BME280;14881;48.092;11.574;2023-02-10T10:32:35;97373.50;;;6.51;87.30
27429;BME280;14881;48.092;11.574;2023-02-10T10:35:12;97359.03;;;6.71;84.95
27429;BME280;14881;48.092;11.574;2023-02-10T10:37:41;97355.59;;;6.82;84.19
27429;BME280;14881;48.092;11.574;2023-02-10T10:40:15;97355.09;;;6.67;85.59
27429;BME280;14881;48.092;11.574;2023-02-10T10:42:46;97352.19;;;6.93;83.08
27429;BME280;14881;48.092;11.574;2023-02-10T10:45:19;97349.97;;;6.83;83.12
27429;BME280;14881;48.092;11.574;2023-02-10T10:47:52;97349.34;;;6.88;81.59
27429;BME280;14881;48.092;11.574;2023-02-10T10:50:23;97353.34;;;6.79;81.49
27429;BME280;14881;48.092;11.574;2023-02-10T10:52:52;97347.78;;;6.98;82.67
27429;BME280;14881;48.092;11.574;2023-02-10T10:55:23;97340.25;;;7.25;80.98
27429;BME280;14881;48.092;11.574;2023-02-10T10:57:53;97334.63;;;7.27;77.45
27429;BME280;14881;48.092;11.574;2023-02-10T11:00:25;97332.06;;;7.32;77.13
27429;BME280;14881;48.092;11.574;2023-02-10T11:02:57;97337.53;;;6.57;76.29
27429;BME280;14881;48.092;11.574;2023-02-10T11:05:29;97318.19;;;7.47;77.15
27429;BME280;14881;48.092;11.574;2023-02-10T11:07:58;97317.13;;;7.84;74.01
27429;BME280;14881;48.092;11.574;2023-02-10T11:10:31;97309.09;;;8.26;73.41
27429;BME280;14881;48.092;11.574;2023-02-10T11:13:00;97306.63;;;7.40;71.96
27429;BME280;14881;48.092;11.574;2023-02-10T11:15:35;97296.38;;;6.80;75.85
27429;BME280;14881;48.092;11.574;2023-02-10T11:18:11;97303.44;;;6.81;76.32
27429;BME280;14881;48.092;11.574;2023-02-10T11:20:50;97302.31;;;6.71;78.32
27429;BME280;14881;48.092;11.574;2023-02-10T11:23:18;97295.72;;;6.85;75.47
27429;BME280;14881;48.092;11.574;2023-02-10T11:25:55;97293.81;;;6.92;75.28
27429;BME280;14881;48.092;11.574;2023-02-10T11:28:25;97291.41;;;7.02;74.52
27429;BME280;14881;48.092;11.574;2023-02-10T11:30:57;97280.81;;;7.44;72.98
27429;BME280;14881;48.092;11.574;2023-02-10T11:33:29;97282.41;;;7.45;72.02
27429;BME280;14881;48.092;11.574;2023-02-10T11:36:02;97284.31;;;7.26;72.54
27429;BME280;14881;48.092;11.574;2023-02-10T11:38:31;97286.75;;;7.82;71.86
27429;BME280;14881;48.092;11.574;2023-02-10T11:41:01;97276.34;;;7.97;68.97
27429;BME280;14881;48.092;11.574;2023-02-10T11:43:35;97283.63;;;7.97;68.76
27429;BME280;14881;48.092;11.574;2023-02-10T11:46:05;97276.34;;;7.31;69.80
27429;BME280;14881;48.092;11.574;2023-02-10T11:48:36;97275.66;;;7.72;69.55
27429;BME280;14881;48.092;11.574;2023-02-10T11:51:06;97258.78;;;7.58;67.24
27429;BME280;14881;48.092;11.574;2023-02-10T11:53:37;97266.81;;;7.47;68.73
27429;BME280;14881;48.092;11.574;2023-02-10T11:56:13;97257.38;;;7.86;67.13
27429;BME280;14881;48.092;11.574;2023-02-10T11:58:59;97257.09;;;7.76;65.64
27429;BME280;14881;48.092;11.574;2023-02-10T12:01:51;97258.50;;;7.96;66.65
27429;BME280;14881;48.092;11.574;2023-02-10T12:04:33;97249.50;;;8.26;63.55
27429;BME280;14881;48.092;11.574;2023-02-10T12:07:10;97245.47;;;8.58;61.46
27429;BME280;14881;48.092;11.574;2023-02-10T12:09:45;97249.84;;;8.48;60.16
27429;BME280;14881;48.092;11.574;2023-02-10T12:12:19;97242.44;;;7.65;62.03
27429;BME280;14881;48.092;11.574;2023-02-10T12:14:55;97242.19;;;8.56;61.37
27429;BME280;14881;48.092;11.574;2023-02-10T12:17:28;97244.19;;;8.84;57.67
27429;BME280;14881;48.092;11.574;2023-02-10T12:20:06;97244.06;;;8.56;57.56
27429;BME280;14881;48.092;11.574;2023-02-10T12:22:50;97245.41;;;7.93;59.35
27429;BME280;14881;48.092;11.574;2023-02-10T12:25:23;97246.53;;;8.16;58.79
27429;BME280;14881;48.092;11.574;2023-02-10T12:28:04;97241.06;;;8.34;59.48
27429;BME280;14881;48.092;11.574;2023-02-10T12:30:43;97235.97;;;8.79;57.09
27429;BME280;14881;48.092;11.574;2023-02-10T12:33:35;97230.03;;;8.06;56.60
27429;BME280;14881;48.092;11.574;2023-02-10T12:36:11;97237.72;;;8.20;56.75
27429;BME280;14881;48.092;11.574;2023-02-10T12:38:52;97234.34;;;7.47;57.77
27429;BME280;14881;48.092;11.574;2023-02-10T12:41:29;97241.13;;;7.56;57.98
27429;BME280;14881;48.092;11.574;2023-02-10T12:44:13;97231.66;;;7.95;57.78
27429;BME280;14881;48.092;11.574;2023-02-10T12:49:18;97231.59;;;8.13;55.82
27429;BME280;14881;48.092;11.574;2023-02-10T12:51:59;97233.75;;;7.93;56.03
27429;BME280;14881;48.092;11.574;2023-02-10T12:54:36;97224.38;;;8.49;54.76
27429;BME280;14881;48.092;11.574;2023-02-10T12:57:16;97225.13;;;8.79;54.75
27429;BME280;14881;48.092;11.574;2023-02-10T12:59:52;97228.53;;;8.86;51.94
27429;BME280;14881;48.092;11.574;2023-02-10T13:02:27;97219.09;;;8.77;53.50
27429;BME280;14881;48.092;11.574;2023-02-10T13:05:02;97227.44;;;8.41;51.38
27429;BME280;14881;48.092;11.574;2023-02-10T13:07:39;97233.16;;;8.32;51.25
27429;BME280;14881;48.092;11.574;2023-02-10T13:10:16;97218.28;;;8.12;52.27